Terminal Aerodrome Forecast
Issued by NWS

Home | Current Version | Previous Version | Text Only | Print | Product List | Glossary On
Versions: 1 2 3 4 5 6 7 8 9 10 11 12 13 14 15 16 17 18 19 20 21 22 23 24 25 26 27
000
FTUS45 KBOU 281725
TAFAPA
TAF
KAPA 281725Z 2818/2918 VRB06KT P6SM SCT070 BKN150
     FM281900 34014KT P6SM VCTS SCT070CB BKN120
      TEMPO 2819/2823 VRB15G30KT 5SM -TSRA BKN060CB
     FM290100 30010KT P6SM SCT080 BKN150
     FM290300 24007KT P6SM SCT150
     FM290600 20007KT P6SM FEW150=

USA.gov is the U.S. government's official web portal to all federal, state and local government web resources and services.